createdAt,value
2022-08-10T00:01:38.037Z,20.44
2022-08-10T00:04:05.669Z,19.94
2022-08-10T00:06:33.068Z,20.63
2022-08-10T00:09:00.450Z,20.11
2022-08-10T00:11:28.158Z,19.88
2022-08-10T00:13:57.914Z,19.77
2022-08-10T00:16:28.084Z,19.71
2022-08-10T00:18:55.392Z,19.66
2022-08-10T00:21:27.074Z,19.61
2022-08-10T00:23:55.547Z,19.57
2022-08-10T00:26:22.809Z,19.51
2022-08-10T00:28:50.248Z,19.49
2022-08-10T00:31:17.797Z,19.45
2022-08-10T00:33:45.218Z,19.42
2022-08-10T00:36:12.538Z,19.41
2022-08-10T00:38:40.331Z,19.60
2022-08-10T00:41:07.617Z,20.16
2022-08-10T00:43:35.106Z,19.71
2022-08-10T00:46:02.613Z,20.04
2022-08-10T00:48:31.290Z,19.96
2022-08-10T00:51:01.866Z,19.53
2022-08-10T00:53:30.057Z,19.38
2022-08-10T00:57:14.271Z,19.33
2022-08-10T00:58:47.730Z,19.26
2022-08-10T01:02:08.946Z,19.24
2022-08-10T01:04:58.197Z,19.18
2022-08-10T01:07:14.046Z,19.15
2022-08-10T01:09:55.520Z,19.06
2022-08-10T01:12:48.771Z,19.61
2022-08-10T01:15:27.361Z,19.36
2022-08-10T01:18:13.750Z,19.05
2022-08-10T01:21:05.486Z,18.94
2022-08-10T01:24:25.265Z,18.83
2022-08-10T01:27:27.023Z,18.78
2022-08-10T01:30:11.717Z,19.44
2022-08-10T01:33:05.927Z,18.83
2022-08-10T01:35:42.379Z,18.65
2022-08-10T01:38:17.408Z,18.57
2022-08-10T01:40:52.858Z,18.46
2022-08-10T01:43:21.121Z,18.40
2022-08-10T01:45:54.014Z,18.35
2022-08-10T01:48:32.532Z,18.32
2022-08-10T01:51:21.806Z,18.98
2022-08-10T01:53:58.736Z,18.47
2022-08-10T01:56:28.819Z,18.29
2022-08-10T01:59:00.359Z,18.19
2022-08-10T02:01:31.169Z,18.14
2022-08-10T02:04:06.345Z,18.10
2022-08-10T02:06:44.091Z,18.04
2022-08-10T02:09:15.895Z,18.01
2022-08-10T02:12:06.515Z,17.97
2022-08-10T02:14:36.618Z,18.67
2022-08-10T02:17:08.271Z,18.24
2022-08-10T02:19:37.918Z,18.03
2022-08-10T02:22:15.417Z,17.95
2022-08-10T02:24:58.046Z,17.87
2022-08-10T02:27:27.168Z,17.82
2022-08-10T02:29:56.469Z,17.95
2022-08-10T02:32:34.037Z,18.51
2022-08-10T02:35:08.400Z,17.92
2022-08-10T02:37:48.086Z,17.75
2022-08-10T02:45:13.865Z,17.66
2022-08-10T02:45:20.593Z,17.59
2022-08-10T02:46:13.860Z,17.54
2022-08-10T02:49:06.608Z,17.49
2022-08-10T02:52:06.355Z,17.42
2022-08-10T02:54:39.079Z,17.37
2022-08-10T02:57:27.712Z,17.87
2022-08-10T03:00:00.590Z,17.48
2022-08-10T03:02:46.753Z,17.33
2022-08-10T03:05:15.407Z,17.25
2022-08-10T03:07:54.312Z,17.21
2022-08-10T03:10:28.384Z,17.15
2022-08-10T03:13:01.884Z,17.10
2022-08-10T03:15:31.750Z,17.06
2022-08-10T03:18:00.360Z,17.03
2022-08-10T03:20:36.831Z,17.05
2022-08-10T03:23:17.858Z,17.48
2022-08-10T03:25:53.076Z,17.10
2022-08-10T03:28:28.649Z,17.50
2022-08-10T03:30:57.457Z,17.19
2022-08-10T03:33:27.485Z,17.00
2022-08-10T03:36:43.119Z,16.91
2022-08-10T03:38:44.678Z,16.85
2022-08-10T03:41:15.911Z,16.80
2022-08-10T03:43:48.311Z,16.75
2022-08-10T03:46:20.092Z,16.72
2022-08-10T03:48:52.017Z,16.69
2022-08-10T03:51:20.457Z,16.65
2022-08-10T03:54:04.189Z,16.63
2022-08-10T03:56:37.080Z,16.61
2022-08-10T03:59:05.854Z,16.57
2022-08-10T04:02:44.008Z,16.53
2022-08-10T04:04:24.684Z,16.51
2022-08-10T04:07:00.171Z,16.47
2022-08-10T04:09:54.141Z,17.01
2022-08-10T04:12:20.752Z,16.66
2022-08-10T04:14:50.950Z,16.49
2022-08-10T04:17:57.214Z,16.42
2022-08-10T04:20:29.946Z,16.38
2022-08-10T04:23:08.327Z,16.34
2022-08-10T04:25:36.609Z,16.31
2022-08-10T04:28:04.830Z,16.28
2022-08-10T04:30:33.233Z,16.69
2022-08-10T04:33:03.668Z,16.78
2022-08-10T04:35:33.076Z,16.47
2022-08-10T04:38:02.530Z,17.01
2022-08-10T04:40:31.363Z,16.62
2022-08-10T04:43:05.788Z,16.49
2022-08-10T04:45:49.513Z,16.45
2022-08-10T04:48:39.976Z,16.45
2022-08-10T04:51:11.261Z,16.48
2022-08-10T04:54:05.990Z,16.51
2022-08-10T04:56:33.548Z,16.50
2022-08-10T04:59:03.624Z,16.53
2022-08-10T05:02:12.142Z,16.53
2022-08-10T05:04:34.746Z,16.58
2022-08-10T05:07:18.475Z,16.62
2022-08-10T05:10:00.924Z,16.68
2022-08-10T05:12:36.397Z,16.74
2022-08-10T05:15:09.419Z,16.78
2022-08-10T05:17:37.252Z,17.38
2022-08-10T05:20:07.981Z,17.24
2022-08-10T05:22:45.883Z,17.35
2022-08-10T05:25:15.482Z,17.68
2022-08-10T05:27:44.284Z,17.38
2022-08-10T05:30:14.848Z,17.35
2022-08-10T05:32:58.249Z,17.37
2022-08-10T05:35:55.372Z,17.43
2022-08-10T05:38:18.970Z,17.44
2022-08-10T05:40:48.068Z,17.55
2022-08-10T05:43:18.823Z,17.59
2022-08-10T05:46:16.659Z,17.72
2022-08-10T05:48:57.923Z,18.44
2022-08-10T05:51:29.548Z,18.01
2022-08-10T05:54:01.205Z,18.53
2022-08-10T05:56:55.512Z,18.40
2022-08-10T06:00:35.181Z,18.23
2022-08-10T06:02:32.754Z,18.23
2022-08-10T06:05:11.710Z,18.27
2022-08-10T06:07:49.576Z,18.35
2022-08-10T06:10:32.468Z,18.37
2022-08-10T06:13:30.853Z,18.49
2022-08-10T06:16:08.642Z,18.50
2022-08-10T06:18:37.579Z,19.19
2022-08-10T06:21:06.669Z,19.09
2022-08-10T06:23:35.115Z,18.92
2022-08-10T06:26:10.583Z,19.52
2022-08-10T06:29:03.570Z,19.31
2022-08-10T06:31:46.777Z,19.16
2022-08-10T06:34:21.722Z,19.15
2022-08-10T06:36:50.519Z,19.21
2022-08-10T06:39:35.316Z,19.25
2022-08-10T06:42:18.114Z,19.40
2022-08-10T06:44:56.138Z,20.14
2022-08-10T06:47:29.192Z,20.01
2022-08-10T06:50:02.742Z,19.81
2022-08-10T06:52:34.217Z,19.91
2022-08-10T06:55:05.145Z,20.63
2022-08-10T06:57:35.472Z,20.33
2022-08-10T07:00:05.787Z,20.23
2022-08-10T07:02:57.719Z,20.29
2022-08-10T07:05:27.795Z,20.46
2022-08-10T07:07:59.821Z,20.48
2022-08-10T07:10:45.994Z,21.49
2022-08-10T07:14:16.771Z,21.44
2022-08-10T07:16:08.651Z,21.17
2022-08-10T07:18:36.938Z,21.21
2022-08-10T07:21:07.651Z,22.07
2022-08-10T07:23:57.128Z,22.13
2022-08-10T07:26:25.361Z,21.93
2022-08-10T07:28:54.139Z,22.04
2022-08-10T07:31:54.741Z,22.29
2022-08-10T07:34:12.015Z,22.26
2022-08-10T07:36:52.710Z,22.30
2022-08-10T07:39:58.384Z,22.37
2022-08-10T07:42:16.068Z,22.40
2022-08-10T07:44:46.573Z,22.40
2022-08-10T07:47:46.293Z,23.57
2022-08-10T07:50:13.111Z,24.37
2022-08-10T07:52:42.812Z,24.72
2022-08-10T07:55:15.455Z,25.24
2022-08-10T07:57:46.972Z,23.98
2022-08-10T08:00:15.470Z,24.37
2022-08-10T08:02:52.419Z,24.54
2022-08-10T08:05:57.219Z,24.19
2022-08-10T08:08:16.254Z,24.34
2022-08-10T08:10:43.761Z,24.38
2022-08-10T08:13:13.233Z,24.43
2022-08-10T08:16:19.247Z,24.48
2022-08-10T08:18:37.083Z,25.50
2022-08-10T08:24:01.812Z,26.51
2022-08-10T08:24:09.315Z,26.77
2022-08-10T08:26:49.329Z,26.78
2022-08-10T08:29:21.144Z,26.63
2022-08-10T08:32:01.153Z,27.49
2022-08-10T08:34:29.998Z,27.52
2022-08-10T08:37:01.169Z,27.42
2022-08-10T08:39:30.238Z,27.85
2022-08-10T08:42:28.437Z,27.26
2022-08-10T08:45:08.617Z,26.68
2022-08-10T08:48:04.569Z,27.71
2022-08-10T08:51:10.725Z,28.21
2022-08-10T08:54:01.558Z,28.50
2022-08-10T08:56:39.115Z,28.20
2022-08-10T08:59:31.058Z,28.59
2022-08-10T09:02:19.317Z,28.28
2022-08-10T09:04:59.407Z,28.25
2022-08-10T09:08:02.306Z,28.98
2022-08-10T09:10:49.433Z,29.08
2022-08-10T09:13:29.715Z,28.06
2022-08-10T09:16:22.243Z,27.87
2022-08-10T09:19:34.657Z,28.76
2022-08-10T09:22:19.159Z,29.51
2022-08-10T09:25:21.318Z,29.01
2022-08-10T09:28:06.179Z,28.05
2022-08-10T09:31:10.864Z,27.73
2022-08-10T09:36:29.979Z,28.48
2022-08-10T09:36:51.297Z,28.83
2022-08-10T09:40:12.315Z,28.20
2022-08-10T09:42:41.201Z,28.47
2022-08-10T09:45:41.512Z,29.45
2022-08-10T09:48:31.426Z,29.08
2022-08-10T09:54:44.320Z,28.51
2022-08-10T09:57:55.370Z,28.96
2022-08-10T10:00:32.450Z,28.88
2022-08-10T10:03:29.997Z,27.92
2022-08-10T10:06:04.089Z,27.96
2022-08-10T10:08:58.317Z,29.30
2022-08-10T10:12:16.481Z,29.05
2022-08-10T10:15:25.226Z,28.90
2022-08-10T10:18:14.559Z,28.10
2022-08-10T10:21:03.658Z,28.36
2022-08-10T10:23:59.911Z,29.51
2022-08-10T10:27:15.963Z,30.10
2022-08-10T10:30:02.358Z,29.11
2022-08-10T10:32:48.543Z,28.26
2022-08-10T10:35:27.279Z,27.94
2022-08-10T10:38:10.224Z,28.36
2022-08-10T10:41:13.639Z,28.55
2022-08-10T10:44:05.312Z,28.04
2022-08-10T10:46:46.375Z,29.11
2022-08-10T10:49:38.988Z,29.25
2022-08-10T10:52:20.512Z,29.19
2022-08-10T10:55:03.649Z,28.40
2022-08-10T10:58:00.017Z,28.72
2022-08-10T11:00:55.545Z,29.11
2022-08-10T11:03:51.235Z,28.25
2022-08-10T11:06:45.657Z,27.99
2022-08-10T11:10:05.967Z,28.45
2022-08-10T11:12:57.028Z,28.73
2022-08-10T11:15:47.584Z,28.29
2022-08-10T11:18:53.310Z,29.00
2022-08-10T11:22:03.991Z,29.68
2022-08-10T11:24:59.279Z,28.84
2022-08-10T11:27:50.672Z,28.20
2022-08-10T11:30:43.866Z,28.06
2022-08-10T11:33:32.940Z,28.64
2022-08-10T11:36:24.174Z,28.28
2022-08-10T11:39:16.650Z,27.81
2022-08-10T11:42:09.451Z,27.77
2022-08-10T11:44:40.396Z,28.60
2022-08-10T11:47:15.527Z,29.09
2022-08-10T11:50:17.152Z,28.75
2022-08-10T11:53:05.970Z,28.35
2022-08-10T11:55:35.160Z,29.01
2022-08-10T11:58:28.722Z,28.54
2022-08-10T12:01:00.128Z,27.80
2022-08-10T12:03:34.794Z,27.84
2022-08-10T12:06:05.087Z,27.81
2022-08-10T12:10:06.204Z,28.56
2022-08-10T12:11:30.944Z,28.35
2022-08-10T12:16:52.976Z,27.67
2022-08-10T12:19:59.848Z,28.29
2022-08-10T12:22:28.333Z,28.13
2022-08-10T12:25:11.828Z,28.77
2022-08-10T12:28:10.541Z,29.63
2022-08-10T12:30:47.171Z,28.44
2022-08-10T12:33:24.264Z,27.99
2022-08-10T12:36:18.895Z,27.80
2022-08-10T12:38:46.449Z,28.31
2022-08-10T12:41:43.538Z,27.64
2022-08-10T12:44:22.862Z,28.45
2022-08-10T12:47:05.732Z,29.84
2022-08-10T12:50:31.787Z,29.13
2022-08-10T12:53:20.639Z,28.17
2022-08-10T12:55:50.119Z,28.10
2022-08-10T12:58:58.261Z,29.53
2022-08-10T13:01:17.802Z,29.50
2022-08-10T13:04:21.793Z,29.60
2022-08-10T13:06:46.818Z,28.92
2022-08-10T13:09:22.469Z,28.80
2022-08-10T13:12:39.073Z,30.47
2022-08-10T13:14:57.436Z,30.80
2022-08-10T13:17:39.351Z,29.66
2022-08-10T13:20:30.533Z,30.19
2022-08-10T13:23:01.774Z,31.12
2022-08-10T13:25:35.760Z,29.98
2022-08-10T13:28:36.320Z,28.68
2022-08-10T13:30:57.566Z,28.41
2022-08-10T13:34:40.352Z,28.32
2022-08-10T13:36:23.270Z,28.72
2022-08-10T13:38:52.514Z,29.44
2022-08-10T13:41:20.311Z,29.51
2022-08-10T13:43:52.951Z,28.93
2022-08-10T13:46:23.732Z,28.69
2022-08-10T13:48:56.175Z,29.47
2022-08-10T13:51:54.348Z,28.85
2022-08-10T13:54:18.830Z,28.64
2022-08-10T13:56:49.228Z,28.98
2022-08-10T13:59:19.209Z,29.63
2022-08-10T14:01:50.687Z,29.65
2022-08-10T14:04:20.052Z,28.86
2022-08-10T14:06:55.295Z,29.78
2022-08-10T14:09:33.298Z,30.59
2022-08-10T14:12:02.193Z,29.64
2022-08-10T14:14:32.833Z,29.29
2022-08-10T14:17:02.220Z,29.87
2022-08-10T14:19:36.996Z,30.17
2022-08-10T14:22:10.937Z,30.11
2022-08-10T14:24:38.230Z,29.77
2022-08-10T14:27:05.700Z,29.85
2022-08-10T14:29:47.096Z,30.04
2022-08-10T14:32:19.673Z,30.52
2022-08-10T14:36:16.914Z,29.96
2022-08-10T14:37:48.017Z,31.51
2022-08-10T14:40:18.685Z,31.57
2022-08-10T14:43:02.125Z,31.38
2022-08-10T14:45:36.066Z,30.31
2022-08-10T14:48:18.598Z,30.31
2022-08-10T14:50:55.312Z,32.15
2022-08-10T14:53:27.484Z,32.59
2022-08-10T14:56:09.876Z,32.08
2022-08-10T14:59:05.666Z,32.44
2022-08-10T15:02:00.809Z,31.14
2022-08-10T15:04:23.366Z,31.02
2022-08-10T15:07:11.772Z,31.17
2022-08-10T15:10:00.072Z,30.22
2022-08-10T15:12:36.179Z,29.77
2022-08-10T15:15:06.848Z,30.91
2022-08-10T15:17:39.801Z,31.05
2022-08-10T15:20:21.071Z,31.88
2022-08-10T15:22:52.412Z,31.01
2022-08-10T15:25:24.298Z,30.00
2022-08-10T15:28:05.473Z,31.10
2022-08-10T15:30:40.644Z,31.14
2022-08-10T15:34:03.820Z,30.88
2022-08-10T15:36:38.078Z,30.40
2022-08-10T15:39:16.393Z,31.51
2022-08-10T15:42:05.292Z,32.65
2022-08-10T15:44:46.718Z,32.23
2022-08-10T15:47:23.183Z,31.07
2022-08-10T15:50:23.752Z,30.86
2022-08-10T15:53:01.726Z,31.20
2022-08-10T15:55:51.461Z,32.18
2022-08-10T15:58:38.689Z,31.41
2022-08-10T16:02:14.481Z,30.37
2022-08-10T16:04:33.164Z,32.07
2022-08-10T16:07:04.190Z,32.54
2022-08-10T16:10:22.360Z,31.82
2022-08-10T16:12:34.237Z,31.51
2022-08-10T16:15:11.426Z,30.62
2022-08-10T16:17:54.403Z,30.16
2022-08-10T16:20:31.215Z,31.17
2022-08-10T16:23:05.584Z,30.36
2022-08-10T16:25:52.140Z,31.06
2022-08-10T16:28:23.661Z,32.25
2022-08-10T16:30:54.459Z,32.71
2022-08-10T16:33:52.954Z,31.90
2022-08-10T16:36:17.407Z,32.01
2022-08-10T16:38:48.883Z,31.79
2022-08-10T16:42:00.675Z,31.73
2022-08-10T16:44:10.599Z,31.75
2022-08-10T16:46:44.321Z,31.50
2022-08-10T16:49:15.989Z,30.16
2022-08-10T16:51:48.353Z,29.87
2022-08-10T16:54:27.060Z,30.40
2022-08-10T16:57:02.996Z,30.54
2022-08-10T16:59:35.809Z,30.31
2022-08-10T17:02:05.186Z,29.72
2022-08-10T17:04:34.596Z,29.61
2022-08-10T17:07:12.319Z,30.68
2022-08-10T17:09:46.621Z,30.10
2022-08-10T17:12:18.479Z,29.04
2022-08-10T17:14:46.838Z,28.78
2022-08-10T17:17:47.914Z,30.42
2022-08-10T17:20:30.355Z,30.10
2022-08-10T17:23:05.125Z,30.64
2022-08-10T17:25:49.001Z,30.93
2022-08-10T17:28:33.215Z,29.69
2022-08-10T17:31:42.218Z,28.78
2022-08-10T17:34:12.416Z,28.39
2022-08-10T17:36:44.792Z,29.10
2022-08-10T17:39:15.324Z,28.18
2022-08-10T17:41:48.656Z,28.50
2022-08-10T17:44:18.393Z,28.80
2022-08-10T17:46:49.863Z,27.95
2022-08-10T17:49:20.891Z,28.69
2022-08-10T17:51:56.792Z,28.25
2022-08-10T17:54:31.060Z,27.74
2022-08-10T17:57:04.595Z,28.43
2022-08-10T17:59:34.358Z,27.45
2022-08-10T18:02:07.111Z,27.50
2022-08-10T18:04:41.460Z,27.44
2022-08-10T18:07:14.268Z,26.92
2022-08-10T18:09:56.509Z,26.67
2022-08-10T18:12:36.040Z,27.43
2022-08-10T18:15:13.476Z,26.95
2022-08-10T18:17:46.329Z,26.76
2022-08-10T18:20:20.404Z,27.55
2022-08-10T18:22:57.740Z,26.89
2022-08-10T18:25:35.326Z,26.48
2022-08-10T18:28:06.358Z,27.24
2022-08-10T18:30:46.120Z,27.19
2022-08-10T18:33:14.728Z,27.08
2022-08-10T18:35:45.387Z,26.87
2022-08-10T18:38:15.283Z,25.94
2022-08-10T18:40:51.261Z,25.59
2022-08-10T18:44:08.396Z,25.37
2022-08-10T18:46:22.222Z,25.27
2022-08-10T18:48:56.242Z,25.16
2022-08-10T18:51:30.378Z,25.02
2022-08-10T18:54:39.489Z,24.89
2022-08-10T18:57:07.807Z,24.72
2022-08-10T19:00:08.276Z,24.59
2022-08-10T19:03:07.638Z,24.45
2022-08-10T19:06:09.510Z,24.32
2022-08-10T19:08:58.024Z,24.18
2022-08-10T19:11:46.896Z,24.02
2022-08-10T19:14:25.182Z,23.89
2022-08-10T19:16:57.841Z,23.79
2022-08-10T19:19:45.172Z,23.68
2022-08-10T19:22:28.569Z,24.20
2022-08-10T19:25:09.374Z,24.46
2022-08-10T19:28:14.844Z,23.70
2022-08-10T19:30:54.782Z,23.48
2022-08-10T19:34:11.483Z,23.35
2022-08-10T19:37:15.655Z,23.22
2022-08-10T19:39:56.548Z,23.19
2022-08-10T19:42:39.960Z,24.70
2022-08-10T19:46:01.355Z,23.62
2022-08-10T19:48:30.757Z,23.21
2022-08-10T19:51:10.408Z,23.05
2022-08-10T19:53:59.272Z,22.91
2022-08-10T19:56:43.869Z,22.80
2022-08-10T20:00:14.952Z,22.72
2022-08-10T20:02:22.037Z,24.78
2022-08-10T20:05:22.779Z,23.37
2022-08-10T20:08:22.188Z,22.89
2022-08-10T20:11:45.287Z,22.67
2022-08-10T20:14:39.612Z,22.52
2022-08-10T20:17:51.423Z,22.42
2022-08-10T20:20:37.061Z,22.32
2022-08-10T20:23:33.357Z,24.47
2022-08-10T20:26:17.920Z,23.06
2022-08-10T20:29:05.937Z,22.50
2022-08-10T20:31:47.130Z,22.29
2022-08-10T20:34:23.210Z,22.14
2022-08-10T20:36:58.419Z,22.05
2022-08-10T20:39:50.994Z,21.89
2022-08-10T20:42:36.215Z,23.39
2022-08-10T20:45:12.163Z,22.67
2022-08-10T20:48:07.439Z,22.03
2022-08-10T20:50:43.725Z,21.79
2022-08-10T20:53:14.754Z,21.69
2022-08-10T20:55:54.508Z,21.63
2022-08-10T20:58:34.154Z,21.57
2022-08-10T21:01:13.881Z,21.47
2022-08-10T21:04:13.200Z,23.27
2022-08-10T21:06:44.028Z,22.18
2022-08-10T21:09:36.970Z,21.65
2022-08-10T21:12:35.045Z,21.47
2022-08-10T21:15:26.925Z,21.39
2022-08-10T21:18:27.155Z,21.34
2022-08-10T21:21:41.379Z,21.37
2022-08-10T21:24:21.925Z,22.95
2022-08-10T21:27:22.547Z,21.75
2022-08-10T21:30:09.228Z,21.43
2022-08-10T21:32:51.611Z,21.31
2022-08-10T21:35:38.869Z,21.23
2022-08-10T21:38:27.580Z,21.17
2022-08-10T21:41:18.918Z,21.11
2022-08-10T21:44:42.014Z,23.04
2022-08-10T21:48:07.131Z,21.54
2022-08-10T21:51:16.439Z,21.26
2022-08-10T21:54:33.465Z,21.10
2022-08-10T21:57:59.984Z,21.03
2022-08-10T22:03:53.903Z,22.35
2022-08-10T22:06:52.673Z,21.27
2022-08-10T22:09:46.110Z,20.89
2022-08-10T22:12:34.534Z,20.78
2022-08-10T22:16:03.240Z,20.64
2022-08-10T22:18:58.887Z,20.57
2022-08-10T22:22:27.195Z,21.00
2022-08-10T22:25:53.497Z,20.57
2022-08-10T22:28:41.148Z,20.40
2022-08-10T22:31:51.713Z,20.34
2022-08-10T22:34:59.365Z,20.23
2022-08-10T22:38:12.754Z,20.15
2022-08-10T22:41:04.424Z,20.29
2022-08-10T22:43:52.910Z,20.59
2022-08-10T22:46:51.199Z,20.13
2022-08-10T22:49:23.056Z,19.98
2022-08-10T22:52:06.874Z,19.89
2022-08-10T22:55:18.960Z,19.83
2022-08-10T22:58:06.363Z,19.81
2022-08-10T23:00:34.653Z,19.76
2022-08-10T23:03:22.181Z,20.29
2022-08-10T23:05:59.628Z,20.36
2022-08-10T23:08:44.159Z,20.22
2022-08-10T23:11:23.252Z,20.80
2022-08-10T23:13:57.943Z,20.12
2022-08-10T23:16:47.572Z,19.98
2022-08-10T23:19:32.814Z,19.89
2022-08-10T23:22:09.535Z,19.83
2022-08-10T23:24:44.058Z,19.79
2022-08-10T23:27:37.911Z,19.74
2022-08-10T23:30:09.915Z,19.70
2022-08-10T23:32:42.502Z,19.68
2022-08-10T23:36:30.662Z,19.64
2022-08-10T23:38:05.341Z,19.61
2022-08-10T23:40:33.415Z,19.56
2022-08-10T23:43:02.937Z,19.55
2022-08-10T23:45:53.248Z,20.43
2022-08-10T23:48:21.795Z,21.07
2022-08-10T23:50:58.535Z,20.43
2022-08-10T23:53:33.293Z,19.94
2022-08-10T23:56:09.523Z,19.75
2022-08-10T23:58:57.509Z,19.66
